Time;durP1;ratioP1;P1;durP2;ratioP2;P2;SDS_P1;SDS_P2;PMS_P1;PMS_P2;Temp;Humidity;BMP_temperature;BMP_pressure;BME280_temperature;BME280_humidity;BME280_pressure;Samples;Min_cycle;Max_cycle;Signal;HPM_P1;HPM_P2
2023/03/03 00:00:38;;;;;;;33.88;21.00;;;1.60;99.90;;;;;;5063150;28;20032;-65
2023/03/03 00:03:08;;;;;;;31.98;21.23;;;1.60;99.90;;;;;;5066948;28;20037;-65
2023/03/03 00:05:34;;;;;;;32.10;20.77;;;1.60;99.90;;;;;;5063181;28;20129;-65
2023/03/03 00:08:01;;;;;;;29.10;20.42;;;1.60;99.90;;;;;;5064661;28;20044;-65
2023/03/03 00:10:27;;;;;;;32.47;20.23;;;1.60;99.90;;;;;;5067232;28;20043;-66
2023/03/03 00:12:53;;;;;;;27.75;19.38;;;1.60;99.90;;;;;;5060933;28;20049;-65
2023/03/03 00:15:21;;;;;;;26.88;18.35;;;1.60;99.90;;;;;;5051830;28;20062;-65
2023/03/03 00:17:46;;;;;;;30.67;19.13;;;1.50;99.90;;;;;;5042878;28;20969;-65
2023/03/03 00:20:30;;;;;;;31.13;20.10;;;1.60;99.90;;;;;;5067836;28;20044;-65
2023/03/03 00:23:28;;;;;;;30.30;19.70;;;1.50;99.90;;;;;;5040071;28;20531;-65
2023/03/03 00:25:56;;;;;;;34.33;21.35;;;1.60;99.90;;;;;;5040675;28;20063;-65
2023/03/03 00:28:43;;;;;;;31.17;19.77;;;1.60;99.90;;;;;;5062873;28;20034;-65
2023/03/03 00:31:17;;;;;;;32.05;20.30;;;1.50;99.90;;;;;;5058239;28;20032;-65
2023/03/03 00:33:54;;;;;;;32.30;20.50;;;1.60;99.90;;;;;;5047842;28;20473;-65
2023/03/03 00:36:30;;;;;;;32.80;20.52;;;1.60;99.90;;;;;;5066093;28;20067;-65
2023/03/03 00:39:29;;;;;;;36.63;22.05;;;1.60;99.90;;;;;;5064913;28;20124;-66
2023/03/03 00:41:56;;;;;;;40.28;22.60;;;1.60;99.90;;;;;;5059162;28;20119;-66
2023/03/03 00:44:37;;;;;;;37.72;23.17;;;1.60;99.90;;;;;;5066246;28;20157;-66
2023/03/03 00:47:37;;;;;;;37.80;21.83;;;1.60;99.90;;;;;;5062306;28;20064;-65
2023/03/03 00:50:05;;;;;;;34.55;21.17;;;1.70;99.90;;;;;;5059731;28;20446;-65
2023/03/03 00:52:35;;;;;;;36.42;21.60;;;1.70;99.90;;;;;;5067284;28;21161;-66
2023/03/03 00:55:02;;;;;;;40.83;22.80;;;1.60;99.90;;;;;;5064126;28;20166;-66
2023/03/03 00:57:28;;;;;;;41.20;23.45;;;1.60;99.90;;;;;;5064118;28;20036;-66
2023/03/03 00:59:54;;;;;;;41.22;23.27;;;1.60;99.90;;;;;;5058023;28;20036;-66
2023/03/03 01:02:20;;;;;;;36.38;22.83;;;1.70;99.90;;;;;;5063781;28;20043;-66
2023/03/03 01:04:50;;;;;;;43.28;24.48;;;1.70;99.90;;;;;;5084105;28;20051;-65
2023/03/03 01:07:17;;;;;;;42.72;23.38;;;1.70;99.90;;;;;;5081846;28;20119;-65
2023/03/03 01:09:43;;;;;;;38.80;22.73;;;1.70;99.90;;;;;;5074849;28;20458;-66
2023/03/03 01:12:10;;;;;;;38.58;22.70;;;1.80;99.90;;;;;;5081560;28;20047;-65
2023/03/03 01:14:35;;;;;;;46.45;22.25;;;1.70;99.90;;;;;;5083212;28;20495;-66
2023/03/03 01:17:02;;;;;;;43.42;22.70;;;1.80;99.90;;;;;;5080412;28;20024;-65
2023/03/03 01:19:28;;;;;;;42.97;23.90;;;1.80;99.90;;;;;;5074174;28;20042;-66
2023/03/03 01:21:53;;;;;;;43.63;22.38;;;1.80;99.90;;;;;;5083424;28;20040;-66
2023/03/03 01:24:19;;;;;;;46.28;22.83;;;1.80;99.90;;;;;;5064835;28;20048;-65
2023/03/03 01:26:45;;;;;;;43.28;22.00;;;1.80;99.90;;;;;;5083085;28;20508;-65
2023/03/03 01:29:11;;;;;;;42.42;22.55;;;1.70;99.90;;;;;;5063544;28;20080;-66
2023/03/03 01:31:37;;;;;;;37.75;21.45;;;1.80;99.90;;;;;;5085247;28;20119;-65
2023/03/03 01:34:02;;;;;;;70.72;22.67;;;1.80;99.90;;;;;;5082799;28;20036;-65
2023/03/03 01:36:29;;;;;;;44.28;21.58;;;1.80;99.90;;;;;;5081239;28;20039;-66
2023/03/03 01:38:55;;;;;;;42.85;22.63;;;1.90;99.90;;;;;;5083375;28;20024;-65
2023/03/03 01:41:21;;;;;;;40.95;20.90;;;1.90;99.90;;;;;;5081303;28;20075;-66
2023/03/03 01:43:48;;;;;;;51.60;23.70;;;1.90;99.90;;;;;;5085561;28;20388;-65
2023/03/03 01:46:23;;;;;;;69.88;23.27;;;1.90;99.90;;;;;;5064086;28;20048;-65
2023/03/03 01:48:52;;;;;;;48.22;22.80;;;2.00;99.90;;;;;;5069426;28;20075;-66
2023/03/03 01:51:45;;;;;;;50.15;22.98;;;1.90;99.90;;;;;;5082580;28;20043;-66
2023/03/03 01:54:17;;;;;;;49.42;23.63;;;2.00;99.90;;;;;;5081546;28;20062;-66
2023/03/03 01:56:43;;;;;;;58.22;24.73;;;2.00;99.90;;;;;;5078708;28;20042;-65
2023/03/03 01:59:14;;;;;;;61.10;23.65;;;2.00;99.90;;;;;;5066572;28;20058;-66
2023/03/03 02:01:41;;;;;;;70.93;22.95;;;2.00;99.90;;;;;;5081638;28;20040;-66
2023/03/03 02:04:07;;;;;;;99.00;24.73;;;2.00;99.90;;;;;;5085501;28;20039;-66
2023/03/03 02:06:37;;;;;;;109.78;26.10;;;2.00;99.90;;;;;;5077900;28;20175;-66
2023/03/03 02:09:31;;;;;;;51.30;21.92;;;2.00;99.90;;;;;;5080253;28;20040;-67
2023/03/03 02:12:00;;;;;;;69.68;20.35;;;2.00;99.90;;;;;;5081510;28;20040;-66
2023/03/03 02:14:26;;;;;;;59.97;22.08;;;2.00;99.90;;;;;;5069844;28;20044;-66
2023/03/03 02:16:51;;;;;;;69.57;22.98;;;2.00;99.90;;;;;;5084331;28;20040;-67
2023/03/03 02:19:51;;;;;;;81.65;23.83;;;2.00;99.90;;;;;;5082772;28;20076;-66
2023/03/03 02:22:30;;;;;;;109.88;24.58;;;2.00;99.90;;;;;;5081547;28;20378;-67
2023/03/03 02:25:07;;;;;;;71.03;21.25;;;2.00;99.90;;;;;;5058483;28;20391;-67
2023/03/03 02:27:33;;;;;;;63.58;22.38;;;2.00;99.90;;;;;;5077986;28;20048;-67
2023/03/03 02:30:09;;;;;;;115.25;26.20;;;2.00;99.90;;;;;;5067806;28;20036;-67
2023/03/03 02:32:34;;;;;;;82.32;21.63;;;2.00;99.90;;;;;;5081286;28;20089;-66
2023/03/03 02:35:00;;;;;;;96.60;24.30;;;2.00;99.90;;;;;;5076353;28;20040;-67
2023/03/03 02:37:27;;;;;;;56.75;21.30;;;2.00;99.90;;;;;;5063539;28;20052;-66
2023/03/03 02:39:53;;;;;;;73.68;22.63;;;2.10;99.90;;;;;;5066033;28;20051;-67
2023/03/03 02:42:22;;;;;;;75.05;22.27;;;2.10;99.90;;;;;;5087584;28;20051;-67
2023/03/03 02:44:48;;;;;;;66.10;19.27;;;2.10;99.90;;;;;;5071582;28;20044;-67
2023/03/03 02:47:13;;;;;;;81.43;20.63;;;2.10;99.90;;;;;;5088699;28;20115;-66
2023/03/03 02:49:40;;;;;;;54.53;18.58;;;2.10;99.90;;;;;;5087062;28;20039;-66
2023/03/03 02:52:11;;;;;;;68.85;20.65;;;2.10;99.90;;;;;;5082144;28;20059;-66
2023/03/03 02:54:37;;;;;;;54.35;19.08;;;2.10;99.90;;;;;;5083245;28;20051;-66
2023/03/03 02:57:04;;;;;;;74.70;19.45;;;2.10;99.90;;;;;;5082763;28;20035;-66
2023/03/03 02:59:30;;;;;;;61.83;19.85;;;2.20;99.90;;;;;;5085621;28;20031;-66
2023/03/03 03:01:56;;;;;;;103.85;21.08;;;2.10;99.90;;;;;;5084735;28;20078;-66
2023/03/03 03:04:24;;;;;;;58.78;18.65;;;2.20;99.90;;;;;;5075689;28;20044;-66
2023/03/03 03:06:51;;;;;;;68.80;19.15;;;2.20;99.90;;;;;;5085578;28;20044;-66
2023/03/03 03:09:18;;;;;;;85.13;19.73;;;2.20;99.90;;;;;;5086044;28;20036;-66
2023/03/03 03:11:44;;;;;;;71.97;18.70;;;2.20;99.90;;;;;;5070326;28;20066;-66
2023/03/03 03:14:11;;;;;;;79.40;18.25;;;2.20;99.90;;;;;;5069817;28;20036;-66
2023/03/03 03:16:37;;;;;;;89.22;20.85;;;2.20;99.90;;;;;;5071910;28;20531;-66
2023/03/03 03:19:04;;;;;;;79.63;19.08;;;2.20;99.90;;;;;;5085228;28;20074;-66
2023/03/03 03:21:30;;;;;;;102.80;19.65;;;2.20;99.90;;;;;;5081950;28;20246;-66
2023/03/03 03:23:56;;;;;;;107.25;21.10;;;2.20;99.90;;;;;;5081332;28;20036;-66
2023/03/03 03:26:22;;;;;;;93.78;20.38;;;2.20;99.90;;;;;;5084807;28;20126;-65
2023/03/03 03:28:49;;;;;;;71.55;20.85;;;2.20;99.90;;;;;;5088602;28;20118;-65
2023/03/03 03:31:15;;;;;;;98.75;21.80;;;2.20;99.90;;;;;;5084628;28;20044;-65
2023/03/03 03:33:41;;;;;;;77.72;19.50;;;2.20;99.90;;;;;;5088110;28;20036;-65
2023/03/03 03:36:07;;;;;;;66.85;19.75;;;2.20;99.90;;;;;;5081474;28;20038;-65
2023/03/03 03:38:33;;;;;;;105.50;19.70;;;2.20;99.90;;;;;;5086311;28;20404;-65
2023/03/03 03:40:59;;;;;;;82.22;20.35;;;2.20;99.90;;;;;;5070178;28;20043;-65
2023/03/03 03:43:26;;;;;;;126.93;22.17;;;2.20;99.90;;;;;;5055219;28;20123;-66
2023/03/03 03:45:52;;;;;;;121.35;20.70;;;2.10;99.90;;;;;;5063925;28;20036;-65
2023/03/03 03:48:18;;;;;;;131.82;22.60;;;2.10;99.90;;;;;;5066781;28;20403;-65
2023/03/03 03:50:48;;;;;;;64.28;19.13;;;2.10;99.90;;;;;;5056998;28;21287;-65
2023/03/03 03:53:13;;;;;;;146.93;22.23;;;2.20;99.90;;;;;;5080295;28;20075;-66
2023/03/03 03:55:39;;;;;;;103.28;20.33;;;2.20;99.90;;;;;;5083014;28;20160;-66
2023/03/03 03:58:05;;;;;;;89.85;18.92;;;2.20;99.90;;;;;;5069915;28;20032;-65
2023/03/03 04:00:31;;;;;;;76.35;18.60;;;2.20;99.90;;;;;;5067005;28;20356;-65
2023/03/03 04:02:57;;;;;;;138.50;21.42;;;2.20;99.90;;;;;;5083327;28;20052;-66
2023/03/03 04:05:23;;;;;;;127.80;20.05;;;2.20;99.90;;;;;;5084396;28;20127;-65
2023/03/03 04:07:48;;;;;;;92.47;19.33;;;2.20;99.90;;;;;;5086322;28;20599;-66
2023/03/03 04:10:14;;;;;;;65.10;17.30;;;2.20;99.90;;;;;;5062880;28;20134;-65
2023/03/03 04:12:40;;;;;;;112.07;20.10;;;2.20;99.90;;;;;;5077753;28;20392;-65
2023/03/03 04:15:08;;;;;;;113.95;21.70;;;2.20;99.90;;;;;;5088638;28;20040;-65
2023/03/03 04:17:35;;;;;;;90.72;17.88;;;2.20;99.90;;;;;;5069764;28;20094;-65
2023/03/03 04:20:01;;;;;;;86.82;19.20;;;2.20;99.90;;;;;;5083379;28;20043;-65
2023/03/03 04:22:31;;;;;;;89.68;18.05;;;2.20;99.90;;;;;;5085568;28;20046;-65
2023/03/03 04:24:56;;;;;;;116.57;18.52;;;2.20;99.90;;;;;;5071055;28;20120;-65
2023/03/03 04:27:22;;;;;;;142.45;17.30;;;2.20;99.90;;;;;;5084782;28;20099;-65
2023/03/03 04:29:48;;;;;;;174.80;21.55;;;2.20;99.90;;;;;;5083893;28;20295;-65
2023/03/03 04:32:14;;;;;;;43.90;13.75;;;2.20;99.90;;;;;;5083577;28;20068;-66
2023/03/03 04:34:39;;;;;;;164.57;19.38;;;2.20;99.90;;;;;;5082521;28;20038;-65
2023/03/03 04:37:05;;;;;;;69.22;13.82;;;2.20;99.90;;;;;;5051389;28;20036;-65
2023/03/03 04:39:31;;;;;;;121.78;17.65;;;2.20;99.90;;;;;;5056320;28;20051;-65
2023/03/03 04:41:56;;;;;;;105.68;16.20;;;2.20;99.90;;;;;;5055338;28;20111;-65
2023/03/03 04:44:22;;;;;;;142.38;17.90;;;2.20;99.90;;;;;;5072699;28;20044;-65
2023/03/03 04:46:48;;;;;;;33.10;12.63;;;2.20;99.90;;;;;;5081724;28;20044;-65
2023/03/03 04:49:13;;;;;;;145.35;16.95;;;2.10;99.90;;;;;;5083040;28;20055;-66
2023/03/03 04:51:39;;;;;;;111.45;15.20;;;2.20;99.90;;;;;;5080761;28;20044;-65
2023/03/03 04:54:05;;;;;;;50.30;12.85;;;2.10;99.90;;;;;;5070193;28;20048;-66
2023/03/03 04:56:30;;;;;;;41.65;13.90;;;2.10;99.90;;;;;;5081755;28;20523;-65
2023/03/03 04:58:57;;;;;;;65.35;15.30;;;2.10;99.90;;;;;;5065061;28;20092;-65
2023/03/03 05:01:22;;;;;;;63.47;13.13;;;2.10;99.90;;;;;;5083669;28;20322;-66
2023/03/03 05:03:48;;;;;;;116.40;16.83;;;2.20;99.90;;;;;;5083849;28;20089;-66
2023/03/03 05:06:15;;;;;;;121.10;17.67;;;2.20;99.90;;;;;;5081094;28;20096;-65
2023/03/03 05:08:42;;;;;;;98.43;16.75;;;2.10;99.90;;;;;;5079925;28;20060;-65
2023/03/03 05:11:08;;;;;;;64.18;14.90;;;2.10;99.90;;;;;;5069788;28;20484;-65
2023/03/03 05:13:33;;;;;;;113.20;17.20;;;2.10;99.90;;;;;;5064917;28;20071;-65
2023/03/03 05:15:59;;;;;;;174.52;19.48;;;2.20;99.90;;;;;;5064044;28;20136;-66
2023/03/03 05:18:26;;;;;;;102.03;15.75;;;2.20;99.90;;;;;;5082069;28;20032;-65
2023/03/03 05:20:53;;;;;;;56.03;14.55;;;2.20;99.90;;;;;;5080251;28;20088;-65
2023/03/03 05:23:19;;;;;;;63.92;13.95;;;2.20;99.90;;;;;;5085349;28;20036;-65
2023/03/03 05:25:47;;;;;;;117.53;17.75;;;2.20;99.90;;;;;;5083246;28;20040;-66
2023/03/03 05:28:13;;;;;;;47.78;11.52;;;2.20;99.90;;;;;;5071561;28;20071;-66
2023/03/03 05:30:39;;;;;;;48.45;11.68;;;2.20;99.90;;;;;;5086620;28;20128;-66
2023/03/03 05:33:05;;;;;;;86.05;13.02;;;2.20;99.90;;;;;;5082366;28;20472;-66
2023/03/03 05:35:32;;;;;;;67.28;9.90;;;2.20;99.90;;;;;;5074530;28;20522;-66
2023/03/03 05:37:58;;;;;;;64.90;9.82;;;2.10;99.90;;;;;;5083374;28;20119;-65
2023/03/03 05:40:27;;;;;;;29.38;8.60;;;2.10;99.90;;;;;;5084955;28;20157;-65
2023/03/03 05:42:53;;;;;;;32.97;8.63;;;2.10;99.90;;;;;;5084516;28;20035;-66
2023/03/03 05:45:20;;;;;;;35.05;8.15;;;2.10;99.90;;;;;;5074805;28;20043;-65
2023/03/03 05:47:49;;;;;;;27.23;7.15;;;2.10;99.90;;;;;;5071839;28;20043;-65
2023/03/03 05:50:16;;;;;;;27.42;8.00;;;2.10;99.90;;;;;;5081968;28;20048;-65
2023/03/03 05:52:42;;;;;;;44.83;9.88;;;2.10;99.90;;;;;;5080516;28;20049;-66
2023/03/03 05:55:09;;;;;;;22.77;7.60;;;2.10;99.90;;;;;;5082483;28;20044;-65
2023/03/03 05:57:35;;;;;;;27.45;8.80;;;2.10;99.90;;;;;;5082730;28;20043;-65
2023/03/03 06:00:04;;;;;;;18.95;8.02;;;2.10;99.90;;;;;;5083410;28;20442;-65
2023/03/03 06:02:30;;;;;;;34.10;9.30;;;2.10;99.90;;;;;;5083614;28;20044;-65
2023/03/03 06:04:56;;;;;;;36.45;10.00;;;2.20;99.90;;;;;;5081441;28;20028;-65
2023/03/03 06:07:22;;;;;;;34.15;8.93;;;2.20;99.90;;;;;;5084949;28;20035;-66
2023/03/03 06:09:47;;;;;;;32.88;9.02;;;2.20;99.90;;;;;;5086232;28;20074;-65
2023/03/03 06:12:13;;;;;;;24.88;8.65;;;2.20;99.90;;;;;;5085580;28;20047;-65
2023/03/03 06:14:39;;;;;;;41.25;8.65;;;2.20;99.90;;;;;;5089025;28;20032;-66
2023/03/03 06:17:05;;;;;;;24.15;7.82;;;2.20;99.90;;;;;;5086142;28;20062;-66
2023/03/03 06:19:30;;;;;;;30.00;8.52;;;2.20;99.90;;;;;;5085986;28;20040;-66
2023/03/03 06:21:56;;;;;;;22.05;9.10;;;2.20;99.90;;;;;;5091301;28;20036;-65
2023/03/03 06:24:24;;;;;;;102.70;14.13;;;2.20;99.90;;;;;;5090544;28;20067;-66
2023/03/03 06:26:50;;;;;;;43.85;9.93;;;2.20;99.90;;;;;;5091663;28;20113;-65
2023/03/03 06:29:16;;;;;;;59.75;9.88;;;2.30;99.90;;;;;;5084061;28;20040;-65
2023/03/03 06:31:42;;;;;;;58.97;10.60;;;2.30;99.90;;;;;;5084835;28;20043;-65
2023/03/03 06:34:08;;;;;;;53.88;9.55;;;2.20;99.90;;;;;;5083115;28;20068;-65
2023/03/03 06:36:34;;;;;;;46.15;9.75;;;2.20;99.90;;;;;;5068082;28;20071;-65
2023/03/03 06:38:59;;;;;;;67.93;11.27;;;2.20;99.90;;;;;;5084547;28;20028;-66
2023/03/03 06:41:25;;;;;;;64.60;10.70;;;2.20;99.90;;;;;;5063744;28;20033;-65
2023/03/03 06:43:51;;;;;;;31.15;8.85;;;2.20;99.90;;;;;;5083823;28;20040;-66
2023/03/03 06:46:17;;;;;;;27.83;9.93;;;2.30;99.90;;;;;;5085178;28;20468;-65
2023/03/03 06:48:43;;;;;;;22.55;8.98;;;2.30;99.90;;;;;;5085832;28;20456;-66
2023/03/03 06:51:21;;;;;;;23.95;8.52;;;2.30;99.90;;;;;;5087641;28;20108;-65
2023/03/03 06:53:48;;;;;;;74.72;11.82;;;2.30;99.90;;;;;;5079793;28;20040;-65
2023/03/03 06:56:15;;;;;;;63.13;12.73;;;2.40;99.90;;;;;;5074629;28;20044;-65
2023/03/03 06:58:41;;;;;;;78.60;12.50;;;2.40;99.90;;;;;;5090310;28;20059;-66
2023/03/03 07:01:17;;;;;;;70.72;12.32;;;2.40;99.90;;;;;;5076524;28;20546;-65
2023/03/03 07:03:42;;;;;;;102.95;15.40;;;2.40;99.90;;;;;;5072226;28;20032;-65
2023/03/03 07:06:38;;;;;;;90.20;13.25;;;2.40;99.90;;;;;;5078142;28;20417;-65
2023/03/03 07:09:08;;;;;;;120.68;14.45;;;2.50;99.90;;;;;;5067070;28;20653;-65
2023/03/03 07:11:38;;;;;;;95.90;12.25;;;2.50;99.90;;;;;;5069196;28;20058;-65
2023/03/03 07:14:14;;;;;;;57.25;10.88;;;2.50;99.90;;;;;;5075735;28;20032;-64
2023/03/03 07:16:40;;;;;;;126.47;12.20;;;2.50;99.90;;;;;;5068600;28;20045;-65
2023/03/03 07:19:36;;;;;;;113.18;12.27;;;2.50;99.90;;;;;;5068052;28;20456;-65
2023/03/03 07:22:14;;;;;;;102.05;13.02;;;2.60;99.90;;;;;;5080526;28;20052;-66
2023/03/03 07:24:42;;;;;;;58.80;12.57;;;2.60;99.90;;;;;;5071255;28;20208;-65
2023/03/03 07:27:18;;;;;;;70.85;13.50;;;2.60;99.90;;;;;;5068746;28;20040;-66
2023/03/03 07:29:50;;;;;;;57.95;12.57;;;2.60;99.90;;;;;;5060599;28;20041;-65
2023/03/03 07:32:32;;;;;;;83.10;12.68;;;2.60;99.90;;;;;;5082977;28;20040;-65
2023/03/03 07:34:58;;;;;;;80.47;11.70;;;2.70;99.90;;;;;;5065740;28;20032;-66
2023/03/03 07:37:30;;;;;;;63.55;12.60;;;2.70;99.90;;;;;;5082775;28;20036;-66
2023/03/03 07:39:56;;;;;;;48.90;11.40;;;2.70;99.90;;;;;;5071387;28;20040;-66
2023/03/03 07:42:26;;;;;;;47.33;10.63;;;2.70;99.90;;;;;;5069960;28;20102;-65
2023/03/03 07:44:58;;;;;;;39.05;11.27;;;2.80;99.90;;;;;;5085503;28;20120;-66
2023/03/03 07:47:30;;;;;;;38.92;11.27;;;2.80;99.90;;;;;;5088565;28;20040;-66
2023/03/03 07:50:06;;;;;;;65.60;9.93;;;2.90;99.90;;;;;;5077841;28;20040;-65
2023/03/03 07:52:41;;;;;;;61.88;11.23;;;2.90;99.90;;;;;;5074232;28;20143;-66
2023/03/03 07:55:25;;;;;;;35.75;10.20;;;2.90;99.90;;;;;;5085079;28;20502;-65
2023/03/03 07:57:55;;;;;;;47.85;10.80;;;3.00;99.90;;;;;;5082792;28;20059;-65
2023/03/03 08:00:27;;;;;;;66.15;10.40;;;3.10;99.90;;;;;;5061558;28;20036;-66
2023/03/03 08:03:09;;;;;;;92.93;12.90;;;3.10;99.90;;;;;;5068280;28;20126;-66
2023/03/03 08:05:41;;;;;;;38.53;10.38;;;3.10;99.90;;;;;;5085284;28;20400;-66
2023/03/03 08:08:29;;;;;;;110.03;14.50;;;3.00;99.90;;;;;;5085338;28;20045;-66
2023/03/03 08:10:59;;;;;;;25.65;9.65;;;3.00;99.90;;;;;;5066469;28;20052;-66
2023/03/03 08:13:39;;;;;;;26.98;10.75;;;3.00;99.90;;;;;;5083534;28;20055;-67
2023/03/03 08:16:08;;;;;;;41.20;10.50;;;3.00;99.90;;;;;;5076436;28;20043;-66
2023/03/03 08:18:36;;;;;;;34.70;10.60;;;3.10;99.90;;;;;;5082349;28;20127;-67
2023/03/03 08:21:11;;;;;;;43.53;10.57;;;3.20;99.90;;;;;;5086900;28;20110;-66
2023/03/03 08:23:37;;;;;;;51.97;10.77;;;3.30;99.90;;;;;;5081947;28;20041;-66
2023/03/03 08:26:03;;;;;;;59.50;9.93;;;3.40;99.90;;;;;;5067641;28;20059;-66
2023/03/03 08:28:29;;;;;;;27.10;9.52;;;3.50;99.90;;;;;;5088142;28;20055;-66
2023/03/03 08:30:55;;;;;;;20.77;9.13;;;3.60;99.90;;;;;;5087436;28;20455;-67
2023/03/03 08:33:21;;;;;;;34.65;8.77;;;3.60;99.90;;;;;;5086306;28;20028;-66
2023/03/03 08:35:47;;;;;;;22.17;9.10;;;3.60;99.90;;;;;;5086594;28;20136;-67
2023/03/03 08:38:17;;;;;;;27.92;6.47;;;3.70;99.90;;;;;;5069927;28;20036;-66
2023/03/03 08:40:43;;;;;;;18.40;6.35;;;3.70;99.90;;;;;;5087440;28;20047;-66
2023/03/03 08:43:12;;;;;;;11.70;5.47;;;3.60;99.90;;;;;;5063120;28;20039;-66
2023/03/03 08:45:38;;;;;;;12.48;5.47;;;3.60;99.90;;;;;;5072211;28;20044;-67
2023/03/03 08:48:04;;;;;;;44.63;7.35;;;3.60;99.90;;;;;;5086013;28;20131;-66
2023/03/03 08:50:30;;;;;;;19.13;6.18;;;3.80;99.90;;;;;;5075648;28;20047;-67
2023/03/03 08:52:56;;;;;;;27.63;6.75;;;3.80;99.90;;;;;;5072306;28;20043;-67
2023/03/03 08:55:22;;;;;;;18.75;5.88;;;3.90;99.90;;;;;;5086425;28;20042;-67
2023/03/03 08:57:47;;;;;;;17.23;6.18;;;4.00;99.90;;;;;;5070870;28;20476;-66
2023/03/03 09:00:16;;;;;;;17.00;5.43;;;4.10;99.90;;;;;;5086658;28;20036;-67
2023/03/03 09:02:42;;;;;;;15.13;4.38;;;4.10;99.90;;;;;;5068707;28;20052;-67
2023/03/03 09:05:08;;;;;;;11.25;4.05;;;4.10;99.90;;;;;;5065204;28;20044;-66
2023/03/03 09:07:34;;;;;;;9.35;4.53;;;4.20;99.90;;;;;;5075312;28;20035;-66
2023/03/03 09:10:00;;;;;;;11.43;5.00;;;4.40;99.90;;;;;;5084357;28;20564;-66
2023/03/03 09:12:28;;;;;;;9.43;4.75;;;4.50;99.90;;;;;;5065266;28;20051;-66
2023/03/03 09:14:59;;;;;;;18.38;8.52;;;4.60;99.90;;;;;;5080012;28;20416;-66
2023/03/03 09:17:34;;;;;;;14.73;8.20;;;4.50;99.90;;;;;;5067938;28;20081;-67
2023/03/03 09:20:20;;;;;;;13.88;8.10;;;4.40;99.90;;;;;;5080309;28;20092;-67
2023/03/03 09:22:46;;;;;;;10.60;6.80;;;4.40;99.90;;;;;;5081162;28;20028;-66
2023/03/03 09:25:30;;;;;;;10.68;7.28;;;4.30;99.90;;;;;;5077177;28;20067;-67
2023/03/03 09:27:57;;;;;;;12.80;7.97;;;4.30;99.90;;;;;;5087322;28;20051;-67
2023/03/03 09:30:25;;;;;;;12.68;8.52;;;4.30;99.90;;;;;;5088394;28;20285;-67
2023/03/03 09:32:52;;;;;;;11.20;7.57;;;4.30;99.90;;;;;;5070784;28;20055;-67
2023/03/03 09:35:37;;;;;;;13.27;8.13;;;4.30;99.90;;;;;;5069180;28;20039;-67
2023/03/03 09:38:29;;;;;;;13.48;8.05;;;4.30;99.90;;;;;;5083153;28;20048;-67
2023/03/03 09:41:09;;;;;;;11.20;6.78;;;4.40;99.90;;;;;;5084008;28;20093;-64
2023/03/03 09:44:15;;;;;;;9.15;6.38;;;4.40;99.90;;;;;;5085384;28;20492;-65
2023/03/03 09:47:04;;;;;;;9.85;5.70;;;4.50;99.90;;;;;;5084154;28;20032;-66
2023/03/03 09:49:56;;;;;;;8.50;6.15;;;4.50;99.90;;;;;;5078834;28;20465;-66
2023/03/03 09:52:39;;;;;;;8.80;6.30;;;4.50;99.90;;;;;;5066822;28;20123;-66
2023/03/03 09:55:26;;;;;;;8.82;5.70;;;4.60;99.90;;;;;;5080084;28;20119;-66
2023/03/03 09:58:00;;;;;;;12.23;6.57;;;4.70;99.90;;;;;;5064509;28;20036;-66
2023/03/03 10:00:49;;;;;;;;;;;4.70;99.90;;;;;;5080980;28;20036;-67
2023/03/03 10:03:36;;;;;;;8.73;6.68;;;4.80;99.90;;;;;;5081763;28;19954;-66
2023/03/03 10:06:30;;;;;;;9.38;6.03;;;4.80;99.90;;;;;;5067687;28;20100;-66
2023/03/03 10:09:12;;;;;;;8.70;5.57;;;4.90;99.90;;;;;;5079166;28;20140;-66
2023/03/03 10:12:08;;;;;;;9.18;5.38;;;5.10;99.90;;;;;;5072113;28;20482;-66
2023/03/03 10:14:51;;;;;;;10.10;5.22;;;5.20;99.90;;;;;;5068978;28;20326;-66
2023/03/03 10:17:29;;;;;;;6.97;5.07;;;5.30;99.90;;;;;;5080889;28;20036;-66
2023/03/03 10:20:12;;;;;;;5.55;4.68;;;5.30;99.90;;;;;;5082525;28;20138;-66
2023/03/03 10:22:54;;;;;;;7.22;5.50;;;5.40;99.90;;;;;;5066983;28;20380;-66
2023/03/03 10:25:32;;;;;;;7.15;4.55;;;5.50;99.90;;;;;;5081186;28;20054;-66
2023/03/03 10:28:24;;;;;;;7.72;5.07;;;5.50;99.90;;;;;;5072940;28;20040;-66
2023/03/03 10:30:57;;;;;;;7.28;4.00;;;5.60;99.90;;;;;;5076182;28;20096;-66
2023/03/03 10:33:29;;;;;;;7.70;4.57;;;5.60;99.90;;;;;;5084988;28;20076;-66
2023/03/03 10:36:13;;;;;;;6.07;4.40;;;5.70;99.90;;;;;;5085973;28;20036;-67
2023/03/03 10:38:54;;;;;;;7.32;4.70;;;5.80;99.90;;;;;;5073424;28;20040;-66
2023/03/03 10:41:45;;;;;;;13.98;5.30;;;5.80;99.90;;;;;;5078333;28;20382;-66
2023/03/03 10:44:17;;;;;;;6.10;4.50;;;5.80;99.90;;;;;;5085660;28;20104;-66
2023/03/03 10:47:04;;;;;;;7.97;4.90;;;5.90;99.90;;;;;;5074865;28;20040;-66
2023/03/03 10:49:38;;;;;;;7.30;4.40;;;6.00;99.90;;;;;;5065337;28;20087;-66
2023/03/03 10:52:32;;;;;;;8.03;4.93;;;6.10;99.90;;;;;;5056556;28;20059;-66
2023/03/03 10:55:01;;;;;;;6.60;4.47;;;6.20;99.90;;;;;;5084445;28;20057;-66
2023/03/03 10:57:35;;;;;;;6.35;4.50;;;6.20;99.90;;;;;;5086427;28;20301;-66
2023/03/03 11:00:10;;;;;;;;;;;6.30;99.90;;;;;;5070182;28;20591;-66
2023/03/03 11:03:02;;;;;;;9.98;5.30;;;6.40;99.90;;;;;;5080944;28;19942;-66
2023/03/03 11:05:38;;;;;;;10.07;5.75;;;6.50;99.90;;;;;;5057273;28;20404;-66
2023/03/03 11:08:19;;;;;;;9.40;6.15;;;6.50;99.90;;;;;;5086540;28;20377;-67
2023/03/03 11:11:12;;;;;;;12.10;6.13;;;6.70;99.90;;;;;;5076888;28;20033;-66
2023/03/03 11:13:40;;;;;;;11.77;7.03;;;6.70;99.90;;;;;;5084323;28;20051;-66
2023/03/03 11:16:24;;;;;;;13.10;9.30;;;6.80;99.90;;;;;;5079740;28;20372;-66
2023/03/03 11:18:53;;;;;;;16.25;9.45;;;6.80;99.90;;;;;;5074291;28;20051;-66
2023/03/03 11:21:31;;;;;;;15.95;11.13;;;6.90;99.90;;;;;;5072182;28;20032;-67
2023/03/03 11:24:26;;;;;;;17.13;7.35;;;7.00;99.90;;;;;;5089028;28;20140;-66
2023/03/03 11:27:04;;;;;;;10.07;6.72;;;7.10;99.90;;;;;;5071447;28;20511;-66
2023/03/03 11:30:04;;;;;;;9.27;5.32;;;7.30;99.90;;;;;;5086155;28;20048;-66
2023/03/03 11:32:52;;;;;;;5.22;3.25;;;7.90;99.90;;;;;;5071896;28;20044;-66
2023/03/03 11:35:30;;;;;;;5.90;3.10;;;8.90;99.90;;;;;;5075149;28;20119;-66
2023/03/03 11:38:07;;;;;;;5.13;3.35;;;10.70;99.90;;;;;;5087675;28;20040;-67
2023/03/03 11:40:42;;;;;;;5.82;3.13;;;11.90;99.90;;;;;;5087251;28;20032;-67
2023/03/03 11:43:17;;;;;;;5.15;2.67;;;12.50;99.90;;;;;;5090282;28;20055;-66
2023/03/03 11:45:50;;;;;;;3.50;1.80;;;13.30;99.90;;;;;;5074488;28;20073;-68
2023/03/03 11:48:26;;;;;;;4.70;1.63;;;13.60;99.90;;;;;;5088282;28;20036;-67
2023/03/03 11:51:22;;;;;;;3.08;1.80;;;13.00;99.90;;;;;;5084157;28;20399;-67
2023/03/03 11:54:04;;;;;;;4.47;2.40;;;12.00;99.90;;;;;;5085492;28;20048;-67
2023/03/03 11:56:40;;;;;;;4.15;2.20;;;11.30;99.90;;;;;;5083486;28;20044;-67
2023/03/03 11:59:32;;;;;;;3.10;1.13;;;10.90;99.90;;;;;;5084548;28;20055;-66
2023/03/03 12:02:33;;;;;;;3.08;1.17;;;10.50;99.90;;;;;;5076388;28;20040;-67
2023/03/03 12:05:24;;;;;;;3.72;1.10;;;10.00;99.90;;;;;;5086632;28;20032;-67
2023/03/03 12:08:28;;;;;;;4.78;1.00;;;9.60;99.90;;;;;;5087146;28;20032;-67
2023/03/03 12:11:24;;;;;;;2.28;0.85;;;9.30;99.90;;;;;;5071395;28;20044;-67
2023/03/03 12:14:31;;;;;;;4.53;1.50;;;9.10;99.90;;;;;;5070626;28;20058;-67
2023/03/03 12:17:10;;;;;;;3.13;0.85;;;9.00;99.90;;;;;;5071057;28;20396;-67
2023/03/03 12:20:03;;;;;;;4.05;1.77;;;8.90;99.90;;;;;;5083084;28;20039;-67
2023/03/03 12:22:34;;;;;;;3.15;1.10;;;8.80;99.90;;;;;;5086532;28;20115;-67
2023/03/03 12:25:27;;;;;;;4.78;1.40;;;8.70;99.90;;;;;;5074429;28;20476;-67
2023/03/03 12:28:06;;;;;;;2.45;1.40;;;8.60;99.90;;;;;;5088674;28;20108;-67
2023/03/03 12:30:50;;;;;;;4.15;1.50;;;8.60;99.90;;;;;;5081666;28;20048;-67
2023/03/03 12:33:26;;;;;;;4.82;1.83;;;8.80;99.90;;;;;;5083178;28;20268;-67
2023/03/03 12:36:11;;;;;;;3.90;1.58;;;9.00;99.90;;;;;;5085578;28;20028;-67
2023/03/03 12:38:57;;;;;;;4.70;1.30;;;9.20;99.90;;;;;;5070672;28;20040;-66
2023/03/03 12:41:45;;;;;;;5.78;1.10;;;9.20;99.90;;;;;;5065057;28;20189;-67
2023/03/03 12:44:26;;;;;;;4.47;1.13;;;8.90;99.90;;;;;;5071234;28;20544;-67
2023/03/03 12:47:05;;;;;;;3.15;0.90;;;8.70;99.90;;;;;;5070207;28;20075;-68
2023/03/03 12:49:46;;;;;;;2.60;0.70;;;8.50;99.90;;;;;;5083395;28;20119;-67
2023/03/03 12:52:27;;;;;;;4.60;1.00;;;8.40;99.90;;;;;;5084762;28;20031;-67
2023/03/03 12:55:17;;;;;;;3.95;0.80;;;8.30;99.90;;;;;;5068991;28;20097;-67
2023/03/03 12:58:22;;;;;;;3.40;0.70;;;8.30;99.90;;;;;;5084894;28;20047;-67
2023/03/03 13:01:04;;;;;;;3.22;0.80;;;8.30;99.90;;;;;;5085686;28;20044;-67
2023/03/03 13:03:58;;;;;;;3.38;0.65;;;8.30;99.90;;;;;;5070974;28;20060;-67
2023/03/03 13:06:33;;;;;;;4.53;0.68;;;8.30;99.90;;;;;;5078887;28;20147;-67
2023/03/03 13:09:12;;;;;;;2.10;0.60;;;8.30;99.90;;;;;;5082674;28;20088;-67
2023/03/03 13:12:05;;;;;;;3.58;0.77;;;8.30;99.90;;;;;;5083443;28;20044;-67